sensor_id;sensor_type;location;lat;lon;timestamp;P1;durP1;ratioP1;P2;durP2;ratioP2
37657;SDS011;23500;53.268;8.308;2022-10-28T00:01:12;29.10;;;26.52;;
37657;SDS011;23500;53.268;8.308;2022-10-28T00:03:41;28.90;;;26.40;;
37657;SDS011;23500;53.268;8.308;2022-10-28T00:06:24;28.80;;;26.15;;
37657;SDS011;23500;53.268;8.308;2022-10-28T00:08:58;29.15;;;26.63;;
37657;SDS011;23500;53.268;8.308;2022-10-28T00:11:26;29.25;;;26.58;;
37657;SDS011;23500;53.268;8.308;2022-10-28T00:13:54;27.80;;;25.40;;
37657;SDS011;23500;53.268;8.308;2022-10-28T00:16:22;28.80;;;26.20;;
37657;SDS011;23500;53.268;8.308;2022-10-28T00:18:49;30.35;;;27.67;;
37657;SDS011;23500;53.268;8.308;2022-10-28T00:21:18;28.23;;;25.73;;
37657;SDS011;23500;53.268;8.308;2022-10-28T00:23:46;28.30;;;25.80;;
37657;SDS011;23500;53.268;8.308;2022-10-28T00:26:13;28.95;;;26.30;;
37657;SDS011;23500;53.268;8.308;2022-10-28T00:28:44;28.42;;;26.02;;
37657;SDS011;23500;53.268;8.308;2022-10-28T00:31:12;28.35;;;25.85;;
37657;SDS011;23500;53.268;8.308;2022-10-28T00:33:40;28.33;;;25.80;;
37657;SDS011;23500;53.268;8.308;2022-10-28T00:36:13;27.60;;;25.15;;
37657;SDS011;23500;53.268;8.308;2022-10-28T00:38:44;27.35;;;24.95;;
37657;SDS011;23500;53.268;8.308;2022-10-28T00:41:12;27.10;;;24.70;;
37657;SDS011;23500;53.268;8.308;2022-10-28T00:43:41;27.60;;;25.20;;
37657;SDS011;23500;53.268;8.308;2022-10-28T00:48:52;27.83;;;25.33;;
37657;SDS011;23500;53.268;8.308;2022-10-28T00:51:21;27.55;;;25.15;;
37657;SDS011;23500;53.268;8.308;2022-10-28T00:53:49;27.35;;;24.85;;
37657;SDS011;23500;53.268;8.308;2022-10-28T00:56:16;28.20;;;25.52;;
37657;SDS011;23500;53.268;8.308;2022-10-28T00:58:43;27.85;;;25.33;;
37657;SDS011;23500;53.268;8.308;2022-10-28T01:01:11;26.85;;;24.50;;
37657;SDS011;23500;53.268;8.308;2022-10-28T01:03:36;27.33;;;24.80;;
37657;SDS011;23500;53.268;8.308;2022-10-28T01:06:02;27.55;;;25.15;;
37657;SDS011;23500;53.268;8.308;2022-10-28T01:08:28;27.95;;;25.33;;
37657;SDS011;23500;53.268;8.308;2022-10-28T01:17:02;26.23;;;24.02;;
37657;SDS011;23500;53.268;8.308;2022-10-28T01:33:42;25.13;;;23.00;;
37657;SDS011;23500;53.268;8.308;2022-10-28T01:36:17;25.83;;;23.50;;
37657;SDS011;23500;53.268;8.308;2022-10-28T01:39:36;26.90;;;24.40;;
37657;SDS011;23500;53.268;8.308;2022-10-28T01:47:23;26.23;;;23.90;;
37657;SDS011;23500;53.268;8.308;2022-10-28T01:49:57;25.80;;;23.42;;
37657;SDS011;23500;53.268;8.308;2022-10-28T01:52:29;25.73;;;23.45;;
37657;SDS011;23500;53.268;8.308;2022-10-28T01:55:17;25.55;;;23.25;;
37657;SDS011;23500;53.268;8.308;2022-10-28T01:57:50;25.52;;;23.23;;
37657;SDS011;23500;53.268;8.308;2022-10-28T02:00:18;25.38;;;23.17;;
37657;SDS011;23500;53.268;8.308;2022-10-28T02:02:45;26.00;;;23.60;;
37657;SDS011;23500;53.268;8.308;2022-10-28T02:08:00;24.95;;;22.65;;
37657;SDS011;23500;53.268;8.308;2022-10-28T02:26:50;24.52;;;22.38;;
37657;SDS011;23500;53.268;8.308;2022-10-28T02:29:26;24.10;;;21.92;;
37657;SDS011;23500;53.268;8.308;2022-10-28T02:31:59;23.95;;;21.83;;
37657;SDS011;23500;53.268;8.308;2022-10-28T02:34:30;23.60;;;21.58;;
37657;SDS011;23500;53.268;8.308;2022-10-28T02:37:00;25.17;;;22.98;;
37657;SDS011;23500;53.268;8.308;2022-10-28T02:39:30;23.90;;;21.85;;
37657;SDS011;23500;53.268;8.308;2022-10-28T02:42:05;24.17;;;22.08;;
37657;SDS011;23500;53.268;8.308;2022-10-28T02:44:38;23.15;;;21.05;;
37657;SDS011;23500;53.268;8.308;2022-10-28T02:47:12;23.70;;;21.45;;
37657;SDS011;23500;53.268;8.308;2022-10-28T02:49:42;23.58;;;21.48;;
37657;SDS011;23500;53.268;8.308;2022-10-28T02:52:09;22.90;;;21.00;;
37657;SDS011;23500;53.268;8.308;2022-10-28T02:57:15;23.55;;;21.55;;
37657;SDS011;23500;53.268;8.308;2022-10-28T02:59:50;22.50;;;20.60;;
37657;SDS011;23500;53.268;8.308;2022-10-28T03:02:20;22.90;;;21.00;;
37657;SDS011;23500;53.268;8.308;2022-10-28T03:04:46;22.67;;;20.75;;
37657;SDS011;23500;53.268;8.308;2022-10-28T03:07:12;23.08;;;21.00;;
37657;SDS011;23500;53.268;8.308;2022-10-28T03:09:37;23.42;;;21.23;;
37657;SDS011;23500;53.268;8.308;2022-10-28T03:12:03;22.20;;;20.30;;
37657;SDS011;23500;53.268;8.308;2022-10-28T03:14:29;22.77;;;20.77;;
37657;SDS011;23500;53.268;8.308;2022-10-28T03:16:55;22.15;;;20.05;;
37657;SDS011;23500;53.268;8.308;2022-10-28T03:19:20;22.52;;;20.50;;
37657;SDS011;23500;53.268;8.308;2022-10-28T03:21:46;22.58;;;20.48;;
37657;SDS011;23500;53.268;8.308;2022-10-28T03:24:12;21.80;;;20.00;;
37657;SDS011;23500;53.268;8.308;2022-10-28T03:26:37;22.80;;;20.60;;
37657;SDS011;23500;53.268;8.308;2022-10-28T03:29:03;22.25;;;20.25;;
37657;SDS011;23500;53.268;8.308;2022-10-28T03:31:28;21.30;;;19.50;;
37657;SDS011;23500;53.268;8.308;2022-10-28T03:33:54;20.90;;;19.10;;
37657;SDS011;23500;53.268;8.308;2022-10-28T03:36:20;21.83;;;19.90;;
37657;SDS011;23500;53.268;8.308;2022-10-28T03:38:45;22.38;;;20.48;;
37657;SDS011;23500;53.268;8.308;2022-10-28T03:41:11;22.27;;;20.42;;
37657;SDS011;23500;53.268;8.308;2022-10-28T03:43:37;22.25;;;20.25;;
37657;SDS011;23500;53.268;8.308;2022-10-28T03:46:02;22.83;;;20.98;;
37657;SDS011;23500;53.268;8.308;2022-10-28T03:48:28;21.15;;;19.40;;
37657;SDS011;23500;53.268;8.308;2022-10-28T03:50:54;21.30;;;19.40;;
37657;SDS011;23500;53.268;8.308;2022-10-28T03:53:20;20.90;;;19.13;;
37657;SDS011;23500;53.268;8.308;2022-10-28T03:55:53;21.05;;;19.25;;
37657;SDS011;23500;53.268;8.308;2022-10-28T03:58:28;21.02;;;19.23;;
37657;SDS011;23500;53.268;8.308;2022-10-28T04:00:54;20.80;;;19.00;;
37657;SDS011;23500;53.268;8.308;2022-10-28T04:03:21;20.60;;;18.92;;
37657;SDS011;23500;53.268;8.308;2022-10-28T04:05:48;20.90;;;19.10;;
37657;SDS011;23500;53.268;8.308;2022-10-28T04:08:14;19.90;;;18.20;;
37657;SDS011;23500;53.268;8.308;2022-10-28T04:10:41;19.98;;;18.35;;
37657;SDS011;23500;53.268;8.308;2022-10-28T04:13:10;20.38;;;18.67;;
37657;SDS011;23500;53.268;8.308;2022-10-28T04:15:36;20.23;;;18.52;;
37657;SDS011;23500;53.268;8.308;2022-10-28T04:18:02;20.58;;;18.77;;
37657;SDS011;23500;53.268;8.308;2022-10-28T04:20:28;20.00;;;18.25;;
37657;SDS011;23500;53.268;8.308;2022-10-28T04:22:55;20.05;;;18.35;;
37657;SDS011;23500;53.268;8.308;2022-10-28T04:25:21;20.95;;;19.15;;
37657;SDS011;23500;53.268;8.308;2022-10-28T04:27:47;21.10;;;19.20;;
37657;SDS011;23500;53.268;8.308;2022-10-28T04:30:13;20.40;;;18.60;;
37657;SDS011;23500;53.268;8.308;2022-10-28T04:32:42;19.80;;;18.10;;
37657;SDS011;23500;53.268;8.308;2022-10-28T04:35:09;20.38;;;18.58;;
37657;SDS011;23500;53.268;8.308;2022-10-28T04:37:35;19.83;;;18.13;;
37657;SDS011;23500;53.268;8.308;2022-10-28T04:40:01;19.48;;;17.88;;
37657;SDS011;23500;53.268;8.308;2022-10-28T04:42:27;19.45;;;17.85;;
37657;SDS011;23500;53.268;8.308;2022-10-28T04:44:52;20.25;;;18.58;;
37657;SDS011;23500;53.268;8.308;2022-10-28T04:47:18;18.63;;;17.02;;
37657;SDS011;23500;53.268;8.308;2022-10-28T04:49:44;19.13;;;17.40;;
37657;SDS011;23500;53.268;8.308;2022-10-28T04:52:10;19.17;;;17.58;;
37657;SDS011;23500;53.268;8.308;2022-10-28T04:54:35;19.63;;;18.02;;
37657;SDS011;23500;53.268;8.308;2022-10-28T04:57:01;19.20;;;17.45;;
37657;SDS011;23500;53.268;8.308;2022-10-28T04:59:27;19.60;;;17.80;;
37657;SDS011;23500;53.268;8.308;2022-10-28T05:01:53;19.45;;;17.85;;
37657;SDS011;23500;53.268;8.308;2022-10-28T05:04:18;18.85;;;17.25;;
37657;SDS011;23500;53.268;8.308;2022-10-28T05:06:44;19.98;;;18.38;;
37657;SDS011;23500;53.268;8.308;2022-10-28T05:09:09;19.15;;;17.55;;
37657;SDS011;23500;53.268;8.308;2022-10-28T05:11:35;18.48;;;16.98;;
37657;SDS011;23500;53.268;8.308;2022-10-28T05:14:01;18.67;;;17.00;;
37657;SDS011;23500;53.268;8.308;2022-10-28T05:16:27;18.05;;;16.55;;
37657;SDS011;23500;53.268;8.308;2022-10-28T05:18:52;18.85;;;17.25;;
37657;SDS011;23500;53.268;8.308;2022-10-28T05:21:18;18.23;;;16.73;;
37657;SDS011;23500;53.268;8.308;2022-10-28T05:23:44;18.48;;;16.77;;
37657;SDS011;23500;53.268;8.308;2022-10-28T05:26:11;18.75;;;17.05;;
37657;SDS011;23500;53.268;8.308;2022-10-28T05:28:36;18.50;;;17.00;;
37657;SDS011;23500;53.268;8.308;2022-10-28T05:31:02;18.55;;;16.95;;
37657;SDS011;23500;53.268;8.308;2022-10-28T05:33:28;18.15;;;16.55;;
37657;SDS011;23500;53.268;8.308;2022-10-28T05:35:54;17.38;;;15.90;;
37657;SDS011;23500;53.268;8.308;2022-10-28T05:38:19;18.67;;;17.08;;
37657;SDS011;23500;53.268;8.308;2022-10-28T05:40:45;17.98;;;16.38;;
37657;SDS011;23500;53.268;8.308;2022-10-28T05:43:11;17.80;;;16.23;;
37657;SDS011;23500;53.268;8.308;2022-10-28T05:45:36;18.27;;;16.63;;
37657;SDS011;23500;53.268;8.308;2022-10-28T05:48:02;18.02;;;16.48;;
37657;SDS011;23500;53.268;8.308;2022-10-28T05:50:28;18.25;;;16.75;;
37657;SDS011;23500;53.268;8.308;2022-10-28T05:52:54;17.98;;;16.48;;
37657;SDS011;23500;53.268;8.308;2022-10-28T05:55:21;18.25;;;16.65;;
37657;SDS011;23500;53.268;8.308;2022-10-28T05:57:49;17.77;;;16.35;;
37657;SDS011;23500;53.268;8.308;2022-10-28T06:00:16;17.80;;;16.15;;
37657;SDS011;23500;53.268;8.308;2022-10-28T06:02:43;16.77;;;15.48;;
37657;SDS011;23500;53.268;8.308;2022-10-28T06:05:09;16.98;;;15.57;;
37657;SDS011;23500;53.268;8.308;2022-10-28T06:07:36;16.90;;;15.50;;
37657;SDS011;23500;53.268;8.308;2022-10-28T06:10:03;17.02;;;15.43;;
37657;SDS011;23500;53.268;8.308;2022-10-28T06:12:29;17.38;;;15.73;;
37657;SDS011;23500;53.268;8.308;2022-10-28T06:14:55;21.10;;;17.17;;
37657;SDS011;23500;53.268;8.308;2022-10-28T06:17:21;26.25;;;17.27;;
37657;SDS011;23500;53.268;8.308;2022-10-28T06:19:46;26.55;;;17.65;;
37657;SDS011;23500;53.268;8.308;2022-10-28T06:22:12;23.70;;;17.23;;
37657;SDS011;23500;53.268;8.308;2022-10-28T06:24:38;26.38;;;17.08;;
37657;SDS011;23500;53.268;8.308;2022-10-28T06:27:03;25.88;;;16.45;;
37657;SDS011;23500;53.268;8.308;2022-10-28T06:29:29;21.70;;;16.55;;
37657;SDS011;23500;53.268;8.308;2022-10-28T06:31:56;23.05;;;17.00;;
37657;SDS011;23500;53.268;8.308;2022-10-28T06:34:22;27.42;;;17.52;;
37657;SDS011;23500;53.268;8.308;2022-10-28T06:36:47;27.85;;;17.13;;
37657;SDS011;23500;53.268;8.308;2022-10-28T06:39:13;24.77;;;17.05;;
37657;SDS011;23500;53.268;8.308;2022-10-28T06:41:39;27.75;;;16.85;;
37657;SDS011;23500;53.268;8.308;2022-10-28T06:44:05;25.45;;;17.20;;
37657;SDS011;23500;53.268;8.308;2022-10-28T06:46:30;29.33;;;17.45;;
37657;SDS011;23500;53.268;8.308;2022-10-28T06:48:56;29.35;;;16.88;;
37657;SDS011;23500;53.268;8.308;2022-10-28T06:51:22;28.27;;;17.60;;
37657;SDS011;23500;53.268;8.308;2022-10-28T06:53:48;30.38;;;17.73;;
37657;SDS011;23500;53.268;8.308;2022-10-28T06:56:15;29.48;;;16.92;;
37657;SDS011;23500;53.268;8.308;2022-10-28T06:58:40;32.85;;;18.08;;
37657;SDS011;23500;53.268;8.308;2022-10-28T07:01:06;27.13;;;17.92;;
37657;SDS011;23500;53.268;8.308;2022-10-28T07:03:32;28.10;;;16.83;;
37657;SDS011;23500;53.268;8.308;2022-10-28T07:05:57;26.98;;;16.45;;
37657;SDS011;23500;53.268;8.308;2022-10-28T07:08:23;24.58;;;16.52;;
37657;SDS011;23500;53.268;8.308;2022-10-28T07:10:57;27.75;;;16.85;;
37657;SDS011;23500;53.268;8.308;2022-10-28T07:13:24;24.27;;;17.23;;
37657;SDS011;23500;53.268;8.308;2022-10-28T07:15:55;27.55;;;15.98;;
37657;SDS011;23500;53.268;8.308;2022-10-28T07:18:23;26.52;;;15.52;;
37657;SDS011;23500;53.268;8.308;2022-10-28T07:20:50;29.70;;;16.48;;
37657;SDS011;23500;53.268;8.308;2022-10-28T07:23:16;27.23;;;15.30;;
37657;SDS011;23500;53.268;8.308;2022-10-28T07:25:42;23.40;;;15.07;;
37657;SDS011;23500;53.268;8.308;2022-10-28T07:28:15;25.38;;;15.38;;
37657;SDS011;23500;53.268;8.308;2022-10-28T07:30:40;23.50;;;15.70;;
37657;SDS011;23500;53.268;8.308;2022-10-28T07:33:06;26.88;;;14.88;;
37657;SDS011;23500;53.268;8.308;2022-10-28T07:35:32;28.20;;;14.80;;
37657;SDS011;23500;53.268;8.308;2022-10-28T07:37:57;22.52;;;14.73;;
37657;SDS011;23500;53.268;8.308;2022-10-28T07:40:23;26.15;;;15.15;;
37657;SDS011;23500;53.268;8.308;2022-10-28T07:42:49;23.10;;;14.40;;
37657;SDS011;23500;53.268;8.308;2022-10-28T07:45:15;21.70;;;14.73;;
37657;SDS011;23500;53.268;8.308;2022-10-28T07:47:41;22.10;;;14.73;;
37657;SDS011;23500;53.268;8.308;2022-10-28T07:50:07;22.33;;;14.15;;
37657;SDS011;23500;53.268;8.308;2022-10-28T07:52:34;21.10;;;13.20;;
37657;SDS011;23500;53.268;8.308;2022-10-28T07:55:01;23.08;;;14.15;;
37657;SDS011;23500;53.268;8.308;2022-10-28T07:57:27;21.02;;;13.27;;
37657;SDS011;23500;53.268;8.308;2022-10-28T07:59:53;19.45;;;13.52;;
37657;SDS011;23500;53.268;8.308;2022-10-28T08:02:20;19.42;;;13.50;;
37657;SDS011;23500;53.268;8.308;2022-10-28T08:04:47;19.70;;;12.52;;
37657;SDS011;23500;53.268;8.308;2022-10-28T08:07:13;23.02;;;13.68;;
37657;SDS011;23500;53.268;8.308;2022-10-28T08:09:40;20.98;;;13.57;;
37657;SDS011;23500;53.268;8.308;2022-10-28T08:12:06;19.70;;;13.57;;
37657;SDS011;23500;53.268;8.308;2022-10-28T08:14:33;19.80;;;13.43;;
37657;SDS011;23500;53.268;8.308;2022-10-28T08:16:59;17.35;;;13.30;;
37657;SDS011;23500;53.268;8.308;2022-10-28T08:19:24;19.98;;;13.63;;
37657;SDS011;23500;53.268;8.308;2022-10-28T08:21:51;19.35;;;12.90;;
37657;SDS011;23500;53.268;8.308;2022-10-28T08:24:16;18.70;;;12.32;;
37657;SDS011;23500;53.268;8.308;2022-10-28T08:26:42;19.23;;;13.00;;
37657;SDS011;23500;53.268;8.308;2022-10-28T08:29:10;16.75;;;12.75;;
37657;SDS011;23500;53.268;8.308;2022-10-28T08:31:37;19.38;;;12.90;;
37657;SDS011;23500;53.268;8.308;2022-10-28T08:34:04;21.10;;;12.57;;
37657;SDS011;23500;53.268;8.308;2022-10-28T08:36:31;18.52;;;11.55;;
37657;SDS011;23500;53.268;8.308;2022-10-28T08:38:57;16.00;;;11.57;;
37657;SDS011;23500;53.268;8.308;2022-10-28T08:46:55;15.95;;;11.40;;
37657;SDS011;23500;53.268;8.308;2022-10-28T08:49:32;16.38;;;11.30;;
37657;SDS011;23500;53.268;8.308;2022-10-28T09:02:46;15.18;;;10.98;;
37657;SDS011;23500;53.268;8.308;2022-10-28T09:05:31;14.30;;;10.85;;
37657;SDS011;23500;53.268;8.308;2022-10-28T09:07:57;14.95;;;10.60;;
37657;SDS011;23500;53.268;8.308;2022-10-28T09:15:47;14.85;;;11.20;;
37657;SDS011;23500;53.268;8.308;2022-10-28T09:20:59;13.70;;;10.10;;
37657;SDS011;23500;53.268;8.308;2022-10-28T09:23:32;15.25;;;10.80;;
37657;SDS011;23500;53.268;8.308;2022-10-28T09:31:29;12.32;;;10.07;;
37657;SDS011;23500;53.268;8.308;2022-10-28T09:37:03;12.88;;;10.02;;
37657;SDS011;23500;53.268;8.308;2022-10-28T09:45:15;13.68;;;9.13;;
37657;SDS011;23500;53.268;8.308;2022-10-28T09:47:53;12.55;;;10.13;;
37657;SDS011;23500;53.268;8.308;2022-10-28T09:50:23;14.20;;;10.05;;
37657;SDS011;23500;53.268;8.308;2022-10-28T09:53:18;13.27;;;9.63;;
37657;SDS011;23500;53.268;8.308;2022-10-28T09:55:48;11.80;;;9.18;;
37657;SDS011;23500;53.268;8.308;2022-10-28T09:58:14;12.30;;;9.10;;
37657;SDS011;23500;53.268;8.308;2022-10-28T10:00:42;13.02;;;9.48;;
37657;SDS011;23500;53.268;8.308;2022-10-28T10:03:08;11.32;;;9.30;;
37657;SDS011;23500;53.268;8.308;2022-10-28T10:05:36;12.27;;;9.65;;
37657;SDS011;23500;53.268;8.308;2022-10-28T10:08:06;16.02;;;9.45;;
37657;SDS011;23500;53.268;8.308;2022-10-28T10:10:48;14.18;;;9.57;;
37657;SDS011;23500;53.268;8.308;2022-10-28T10:13:28;12.32;;;8.80;;
37657;SDS011;23500;53.268;8.308;2022-10-28T10:18:56;11.48;;;8.52;;
37657;SDS011;23500;53.268;8.308;2022-10-28T10:24:21;12.90;;;8.77;;
37657;SDS011;23500;53.268;8.308;2022-10-28T10:26:55;10.18;;;8.48;;
37657;SDS011;23500;53.268;8.308;2022-10-28T10:29:24;9.85;;;8.60;;
37657;SDS011;23500;53.268;8.308;2022-10-28T10:32:35;11.80;;;8.05;;
37657;SDS011;23500;53.268;8.308;2022-10-28T10:34:45;9.93;;;8.38;;
37657;SDS011;23500;53.268;8.308;2022-10-28T10:37:26;13.05;;;8.45;;
37657;SDS011;23500;53.268;8.308;2022-10-28T10:42:49;10.63;;;8.45;;
37657;SDS011;23500;53.268;8.308;2022-10-28T10:47:41;10.88;;;8.05;;
37657;SDS011;23500;53.268;8.308;2022-10-28T10:53:03;12.50;;;7.40;;
37657;SDS011;23500;53.268;8.308;2022-10-28T10:55:36;11.65;;;7.60;;
37657;SDS011;23500;53.268;8.308;2022-10-28T10:58:04;11.82;;;7.78;;
37657;SDS011;23500;53.268;8.308;2022-10-28T11:00:43;12.13;;;7.63;;
37657;SDS011;23500;53.268;8.308;2022-10-28T11:03:33;11.80;;;7.40;;
37657;SDS011;23500;53.268;8.308;2022-10-28T11:06:17;14.65;;;8.07;;
37657;SDS011;23500;53.268;8.308;2022-10-28T11:08:55;13.90;;;7.90;;
37657;SDS011;23500;53.268;8.308;2022-10-28T11:11:31;9.93;;;7.63;;
37657;SDS011;23500;53.268;8.308;2022-10-28T11:16:46;11.50;;;7.30;;
37657;SDS011;23500;53.268;8.308;2022-10-28T11:19:17;14.65;;;7.85;;
37657;SDS011;23500;53.268;8.308;2022-10-28T11:28:05;10.13;;;7.43;;
37657;SDS011;23500;53.268;8.308;2022-10-28T11:33:47;11.15;;;7.63;;
37657;SDS011;23500;53.268;8.308;2022-10-28T11:36:36;12.57;;;7.38;;
37657;SDS011;23500;53.268;8.308;2022-10-28T11:39:25;14.43;;;7.80;;
37657;SDS011;23500;53.268;8.308;2022-10-28T11:44:44;11.52;;;7.43;;
37657;SDS011;23500;53.268;8.308;2022-10-28T11:49:56;9.90;;;7.43;;
37657;SDS011;23500;53.268;8.308;2022-10-28T11:55:44;11.10;;;7.50;;
37657;SDS011;23500;53.268;8.308;2022-10-28T12:03:50;11.75;;;7.40;;
37657;SDS011;23500;53.268;8.308;2022-10-28T12:12:34;8.73;;;7.20;;
37657;SDS011;23500;53.268;8.308;2022-10-28T12:17:28;11.57;;;7.57;;
37657;SDS011;23500;53.268;8.308;2022-10-28T12:20:10;11.02;;;7.65;;
37657;SDS011;23500;53.268;8.308;2022-10-28T12:22:55;9.15;;;6.90;;
37657;SDS011;23500;53.268;8.308;2022-10-28T12:25:25;9.27;;;6.50;;
37657;SDS011;23500;53.268;8.308;2022-10-28T12:27:56;10.07;;;6.47;;
37657;SDS011;23500;53.268;8.308;2022-10-28T12:30:26;8.18;;;7.07;;
37657;SDS011;23500;53.268;8.308;2022-10-28T12:38:43;12.07;;;6.97;;
37657;SDS011;23500;53.268;8.308;2022-10-28T12:41:18;10.98;;;7.15;;
37657;SDS011;23500;53.268;8.308;2022-10-28T12:43:51;9.95;;;6.93;;
37657;SDS011;23500;53.268;8.308;2022-10-28T12:49:02;10.52;;;6.72;;
37657;SDS011;23500;53.268;8.308;2022-10-28T12:51:35;9.63;;;6.35;;
37657;SDS011;23500;53.268;8.308;2022-10-28T12:54:48;9.57;;;6.28;;
37657;SDS011;23500;53.268;8.308;2022-10-28T12:57:00;9.07;;;6.75;;
37657;SDS011;23500;53.268;8.308;2022-10-28T12:59:40;8.32;;;6.80;;
37657;SDS011;23500;53.268;8.308;2022-10-28T13:02:13;9.02;;;6.55;;
37657;SDS011;23500;53.268;8.308;2022-10-28T13:04:43;9.25;;;6.60;;
37657;SDS011;23500;53.268;8.308;2022-10-28T13:12:45;9.10;;;6.40;;
37657;SDS011;23500;53.268;8.308;2022-10-28T13:26:21;8.45;;;6.20;;
37657;SDS011;23500;53.268;8.308;2022-10-28T13:28:55;8.32;;;6.53;;
37657;SDS011;23500;53.268;8.308;2022-10-28T13:31:34;8.65;;;6.47;;
37657;SDS011;23500;53.268;8.308;2022-10-28T13:34:03;8.23;;;6.78;;
37657;SDS011;23500;53.268;8.308;2022-10-28T13:36:33;8.20;;;6.38;;
37657;SDS011;23500;53.268;8.308;2022-10-28T13:39:06;11.73;;;6.70;;
37657;SDS011;23500;53.268;8.308;2022-10-28T13:44:50;9.68;;;6.18;;
37657;SDS011;23500;53.268;8.308;2022-10-28T13:47:27;10.05;;;6.65;;
37657;SDS011;23500;53.268;8.308;2022-10-28T13:52:32;7.80;;;6.05;;
37657;SDS011;23500;53.268;8.308;2022-10-28T13:58:24;8.27;;;6.30;;
37657;SDS011;23500;53.268;8.308;2022-10-28T14:00:45;9.18;;;6.82;;
37657;SDS011;23500;53.268;8.308;2022-10-28T14:03:18;10.07;;;6.07;;
37657;SDS011;23500;53.268;8.308;2022-10-28T14:05:50;9.00;;;6.32;;
37657;SDS011;23500;53.268;8.308;2022-10-28T14:08:36;7.57;;;6.15;;
37657;SDS011;23500;53.268;8.308;2022-10-28T14:11:08;7.78;;;6.22;;
37657;SDS011;23500;53.268;8.308;2022-10-28T14:13:38;8.23;;;6.32;;
37657;SDS011;23500;53.268;8.308;2022-10-28T14:16:21;9.48;;;6.38;;
37657;SDS011;23500;53.268;8.308;2022-10-28T14:19:00;9.40;;;6.90;;
37657;SDS011;23500;53.268;8.308;2022-10-28T14:21:40;9.02;;;6.07;;
37657;SDS011;23500;53.268;8.308;2022-10-28T14:29:29;9.75;;;6.13;;
37657;SDS011;23500;53.268;8.308;2022-10-28T14:31:55;8.55;;;6.65;;
37657;SDS011;23500;53.268;8.308;2022-10-28T14:36:57;11.52;;;6.93;;
37657;SDS011;23500;53.268;8.308;2022-10-28T14:39:44;9.30;;;6.20;;
37657;SDS011;23500;53.268;8.308;2022-10-28T14:45:25;6.93;;;6.00;;
37657;SDS011;23500;53.268;8.308;2022-10-28T14:50:54;7.32;;;6.25;;
37657;SDS011;23500;53.268;8.308;2022-10-28T14:53:30;8.27;;;5.78;;
37657;SDS011;23500;53.268;8.308;2022-10-28T14:56:02;9.32;;;6.20;;
37657;SDS011;23500;53.268;8.308;2022-10-28T14:58:39;8.38;;;6.40;;
37657;SDS011;23500;53.268;8.308;2022-10-28T15:03:51;11.07;;;6.22;;
37657;SDS011;23500;53.268;8.308;2022-10-28T15:06:32;7.13;;;5.50;;
37657;SDS011;23500;53.268;8.308;2022-10-28T15:11:30;7.88;;;6.43;;
37657;SDS011;23500;53.268;8.308;2022-10-28T15:13:59;8.35;;;6.25;;
37657;SDS011;23500;53.268;8.308;2022-10-28T15:16:44;9.32;;;6.03;;
37657;SDS011;23500;53.268;8.308;2022-10-28T15:19:17;10.00;;;6.30;;
37657;SDS011;23500;53.268;8.308;2022-10-28T15:22:06;10.13;;;6.00;;
37657;SDS011;23500;53.268;8.308;2022-10-28T15:24:50;7.82;;;6.18;;
37657;SDS011;23500;53.268;8.308;2022-10-28T15:27:19;6.97;;;5.65;;
37657;SDS011;23500;53.268;8.308;2022-10-28T15:29:46;7.22;;;5.70;;
37657;SDS011;23500;53.268;8.308;2022-10-28T15:34:45;8.05;;;6.25;;
37657;SDS011;23500;53.268;8.308;2022-10-28T15:37:14;7.25;;;5.68;;
37657;SDS011;23500;53.268;8.308;2022-10-28T15:39:45;8.48;;;5.95;;
37657;SDS011;23500;53.268;8.308;2022-10-28T15:42:58;9.90;;;6.43;;
37657;SDS011;23500;53.268;8.308;2022-10-28T15:45:04;6.40;;;5.70;;
37657;SDS011;23500;53.268;8.308;2022-10-28T15:47:31;10.75;;;6.10;;
37657;SDS011;23500;53.268;8.308;2022-10-28T15:52:35;8.30;;;5.70;;
37657;SDS011;23500;53.268;8.308;2022-10-28T15:57:53;8.57;;;5.82;;
37657;SDS011;23500;53.268;8.308;2022-10-28T16:02:54;8.20;;;6.05;;
37657;SDS011;23500;53.268;8.308;2022-10-28T16:07:58;8.90;;;6.30;;
37657;SDS011;23500;53.268;8.308;2022-10-28T16:10:32;8.85;;;6.07;;
37657;SDS011;23500;53.268;8.308;2022-10-28T16:13:01;7.10;;;5.95;;
37657;SDS011;23500;53.268;8.308;2022-10-28T16:15:28;8.25;;;5.88;;
37657;SDS011;23500;53.268;8.308;2022-10-28T16:17:54;7.70;;;6.18;;
37657;SDS011;23500;53.268;8.308;2022-10-28T16:20:20;10.05;;;6.00;;
37657;SDS011;23500;53.268;8.308;2022-10-28T16:22:51;8.73;;;5.95;;
37657;SDS011;23500;53.268;8.308;2022-10-28T16:25:18;12.52;;;6.57;;
37657;SDS011;23500;53.268;8.308;2022-10-28T16:27:46;9.38;;;6.40;;
37657;SDS011;23500;53.268;8.308;2022-10-28T16:30:12;9.27;;;6.43;;
37657;SDS011;23500;53.268;8.308;2022-10-28T16:35:17;7.97;;;6.43;;
37657;SDS011;23500;53.268;8.308;2022-10-28T16:37:45;8.48;;;6.63;;
37657;SDS011;23500;53.268;8.308;2022-10-28T16:40:11;11.52;;;6.85;;
37657;SDS011;23500;53.268;8.308;2022-10-28T16:42:37;8.70;;;6.18;;
37657;SDS011;23500;53.268;8.308;2022-10-28T16:45:05;8.38;;;6.38;;
37657;SDS011;23500;53.268;8.308;2022-10-28T16:47:32;9.38;;;6.43;;
37657;SDS011;23500;53.268;8.308;2022-10-28T16:49:57;9.27;;;6.65;;
37657;SDS011;23500;53.268;8.308;2022-10-28T16:52:27;9.60;;;6.80;;
37657;SDS011;23500;53.268;8.308;2022-10-28T16:54:54;9.02;;;6.47;;
37657;SDS011;23500;53.268;8.308;2022-10-28T16:57:21;9.98;;;6.82;;
37657;SDS011;23500;53.268;8.308;2022-10-28T16:59:47;8.25;;;6.55;;
37657;SDS011;23500;53.268;8.308;2022-10-28T17:02:32;8.13;;;6.70;;
37657;SDS011;23500;53.268;8.308;2022-10-28T17:04:59;9.60;;;6.72;;
37657;SDS011;23500;53.268;8.308;2022-10-28T17:07:26;8.38;;;6.43;;
37657;SDS011;23500;53.268;8.308;2022-10-28T17:09:52;8.60;;;6.97;;
37657;SDS011;23500;53.268;8.308;2022-10-28T17:12:22;7.72;;;6.10;;
37657;SDS011;23500;53.268;8.308;2022-10-28T17:14:49;8.75;;;7.05;;
37657;SDS011;23500;53.268;8.308;2022-10-28T17:17:14;8.95;;;7.18;;
37657;SDS011;23500;53.268;8.308;2022-10-28T17:19:40;7.88;;;6.75;;
37657;SDS011;23500;53.268;8.308;2022-10-28T17:22:06;8.60;;;7.05;;
37657;SDS011;23500;53.268;8.308;2022-10-28T17:24:33;8.15;;;6.60;;
37657;SDS011;23500;53.268;8.308;2022-10-28T17:26:59;7.63;;;6.40;;
37657;SDS011;23500;53.268;8.308;2022-10-28T17:29:25;8.60;;;6.85;;
37657;SDS011;23500;53.268;8.308;2022-10-28T17:31:52;8.25;;;7.07;;
37657;SDS011;23500;53.268;8.308;2022-10-28T17:34:17;9.85;;;7.00;;
37657;SDS011;23500;53.268;8.308;2022-10-28T17:36:43;10.93;;;7.15;;
37657;SDS011;23500;53.268;8.308;2022-10-28T17:39:09;8.60;;;7.05;;
37657;SDS011;23500;53.268;8.308;2022-10-28T17:41:34;9.48;;;7.28;;
37657;SDS011;23500;53.268;8.308;2022-10-28T17:44:00;9.55;;;7.20;;
37657;SDS011;23500;53.268;8.308;2022-10-28T17:46:26;9.65;;;7.30;;
37657;SDS011;23500;53.268;8.308;2022-10-28T17:48:52;9.48;;;7.25;;
37657;SDS011;23500;53.268;8.308;2022-10-28T17:51:18;8.13;;;7.07;;
37657;SDS011;23500;53.268;8.308;2022-10-28T17:53:45;9.63;;;7.47;;
37657;SDS011;23500;53.268;8.308;2022-10-28T17:56:11;9.13;;;7.05;;
37657;SDS011;23500;53.268;8.308;2022-10-28T17:58:36;8.70;;;7.22;;
37657;SDS011;23500;53.268;8.308;2022-10-28T18:01:03;8.02;;;7.22;;
37657;SDS011;23500;53.268;8.308;2022-10-28T18:03:31;8.80;;;7.30;;
37657;SDS011;23500;53.268;8.308;2022-10-28T18:06:02;8.60;;;7.35;;
37657;SDS011;23500;53.268;8.308;2022-10-28T18:08:39;8.77;;;7.70;;
37657;SDS011;23500;53.268;8.308;2022-10-28T18:11:07;8.05;;;7.25;;